createdAt,value
2023-03-29T00:02:41.281Z,98542.06
2023-03-29T00:07:43.461Z,98548.97
2023-03-29T00:12:45.581Z,98529.47
2023-03-29T00:17:47.665Z,98533.72
2023-03-29T00:22:49.851Z,98530.91
2023-03-29T00:27:51.860Z,98526.53
2023-03-29T00:32:54.030Z,98526.84
2023-03-29T00:37:57.374Z,98517.75
2023-03-29T00:43:00.587Z,98518.06
2023-03-29T00:48:06.581Z,98509.06
2023-03-29T00:53:17.352Z,98503.63
2023-03-29T00:58:26.671Z,98500.16
2023-03-29T01:03:34.321Z,98514.44
2023-03-29T01:08:44.780Z,98507.78
2023-03-29T01:14:08.846Z,98508.84
2023-03-29T01:19:16.014Z,98498.78
2023-03-29T01:24:33.463Z,98498.31
2023-03-29T01:29:38.682Z,98501.84
2023-03-29T01:34:55.378Z,98491.22
2023-03-29T01:39:57.450Z,98484.44
2023-03-29T01:45:09.100Z,98464.25
2023-03-29T01:50:19.840Z,98458.50
2023-03-29T01:55:51.393Z,98452.72
2023-03-29T02:00:55.417Z,98464.06
2023-03-29T02:05:59.609Z,98452.06
2023-03-29T02:11:03.202Z,98444.59
2023-03-29T02:16:13.408Z,98426.69
2023-03-29T02:21:37.372Z,98421.81
2023-03-29T02:26:39.622Z,98406.81
2023-03-29T02:31:49.573Z,98401.16
2023-03-29T02:37:06.971Z,98420.72
2023-03-29T02:42:10.019Z,98421.00
2023-03-29T02:47:22.072Z,98406.53
2023-03-29T02:52:35.616Z,98408.81
2023-03-29T02:57:39.534Z,98407.06
2023-03-29T03:02:41.970Z,98400.53
2023-03-29T03:07:46.235Z,98392.19
2023-03-29T03:12:49.023Z,98396.44
2023-03-29T03:17:51.197Z,98396.44
2023-03-29T03:22:53.253Z,98394.53
2023-03-29T03:27:55.429Z,98377.06
2023-03-29T03:32:59.691Z,98375.38
2023-03-29T03:38:20.212Z,98365.81
2023-03-29T03:43:30.408Z,98368.16
2023-03-29T03:48:33.451Z,98365.81
2023-03-29T03:53:51.777Z,98383.00
2023-03-29T03:59:20.032Z,98365.16
2023-03-29T04:04:34.930Z,98371.88
2023-03-29T04:09:41.505Z,98359.78
2023-03-29T04:15:20.366Z,98356.47
2023-03-29T04:20:33.753Z,98348.00
2023-03-29T04:25:36.746Z,98343.44
2023-03-29T04:31:13.312Z,98343.09
2023-03-29T04:36:44.642Z,98327.72
2023-03-29T04:41:53.647Z,98338.19
2023-03-29T04:47:01.039Z,98313.50
2023-03-29T04:52:24.419Z,98325.75
2023-03-29T04:57:27.920Z,98330.81
2023-03-29T05:02:34.383Z,98322.16
2023-03-29T05:07:38.068Z,98329.47
2023-03-29T05:12:40.394Z,98342.44
2023-03-29T05:17:42.634Z,98334.25
2023-03-29T05:22:47.351Z,98335.59
2023-03-29T05:28:03.623Z,98332.03
2023-03-29T05:33:06.553Z,98322.94
2023-03-29T05:38:10.027Z,98333.53
2023-03-29T05:43:12.722Z,98334.06
2023-03-29T05:48:14.673Z,98345.19
2023-03-29T05:53:19.605Z,98324.97
2023-03-29T05:58:22.256Z,98339.63
2023-03-29T06:03:27.563Z,98329.09
2023-03-29T06:08:35.271Z,98323.25
2023-03-29T06:14:04.793Z,98335.91
2023-03-29T06:19:07.788Z,98333.25
2023-03-29T06:24:10.965Z,98316.97
2023-03-29T06:29:19.689Z,98344.28
2023-03-29T06:34:23.049Z,98310.25
2023-03-29T06:39:53.451Z,98303.75
2023-03-29T06:45:10.995Z,98308.84
2023-03-29T06:50:14.805Z,98303.75
2023-03-29T06:55:42.145Z,98321.88
2023-03-29T07:01:07.555Z,98311.91
2023-03-29T07:06:22.398Z,98307.78
2023-03-29T07:11:25.289Z,98299.88
2023-03-29T07:16:32.721Z,98321.03
2023-03-29T07:22:01.191Z,98309.19
2023-03-29T07:27:17.928Z,98305.28
2023-03-29T07:32:23.846Z,98305.81
2023-03-29T07:37:35.283Z,98317.41
2023-03-29T07:42:38.488Z,98321.31
2023-03-29T07:47:49.288Z,98307.53
2023-03-29T07:52:52.090Z,98323.94
2023-03-29T07:57:54.781Z,98322.56
2023-03-29T08:02:57.708Z,98310.53
2023-03-29T08:07:59.894Z,98322.94
2023-03-29T08:13:22.160Z,98315.63
2023-03-29T08:18:44.460Z,98318.28
2023-03-29T08:23:47.154Z,98307.13
2023-03-29T08:28:56.879Z,98311.63
2023-03-29T08:34:02.057Z,98319.63
2023-03-29T08:39:32.748Z,98301.94
2023-03-29T08:45:16.048Z,98302.34
2023-03-29T08:50:32.610Z,98316.22
2023-03-29T08:55:43.682Z,98309.06
2023-03-29T09:01:19.224Z,98319.09
2023-03-29T09:06:31.804Z,98301.13
2023-03-29T09:11:53.468Z,98283.38
2023-03-29T09:17:08.364Z,98293.38
2023-03-29T09:22:28.105Z,98277.63
2023-03-29T09:27:48.636Z,98271.69
2023-03-29T09:33:25.023Z,98289.19
2023-03-29T09:38:51.100Z,98285.50
2023-03-29T09:43:56.399Z,98269.38
2023-03-29T09:49:07.051Z,98277.56
2023-03-29T09:54:12.585Z,98282.03
2023-03-29T09:59:33.162Z,98280.00
2023-03-29T10:04:36.190Z,98277.13
2023-03-29T10:09:42.334Z,98284.69
2023-03-29T10:14:54.388Z,98289.38
2023-03-29T10:19:59.203Z,98284.94
2023-03-29T10:25:02.431Z,98286.16
2023-03-29T10:30:14.175Z,98294.09
2023-03-29T10:35:34.857Z,98278.22
2023-03-29T10:40:45.226Z,98290.38
2023-03-29T10:45:52.770Z,98285.94
2023-03-29T10:51:00.287Z,98262.09
2023-03-29T10:56:28.022Z,98266.75
2023-03-29T11:01:44.362Z,98267.19
2023-03-29T11:07:08.799Z,98259.63
2023-03-29T11:12:26.581Z,98271.41
2023-03-29T11:18:05.985Z,98271.41
2023-03-29T11:23:27.539Z,98273.59
2023-03-29T11:28:53.055Z,98292.31
2023-03-29T11:34:20.258Z,98267.88
2023-03-29T11:39:43.545Z,98268.44
2023-03-29T11:44:50.739Z,98259.25
2023-03-29T11:50:24.876Z,98262.38
2023-03-29T11:55:32.437Z,98276.75
2023-03-29T12:00:46.582Z,98304.47
2023-03-29T12:05:56.819Z,98271.31
2023-03-29T12:11:29.173Z,98280.28
2023-03-29T12:17:03.200Z,98254.00
2023-03-29T12:22:07.947Z,98279.38
2023-03-29T12:27:17.237Z,98278.13
2023-03-29T12:32:37.810Z,98272.31
2023-03-29T12:38:21.012Z,98290.25
2023-03-29T12:44:03.576Z,98275.16
2023-03-29T12:49:32.615Z,98243.38
2023-03-29T12:54:34.775Z,98292.94
2023-03-29T12:59:46.391Z,98296.22
2023-03-29T13:04:48.414Z,98307.59
2023-03-29T13:10:08.693Z,98324.25
2023-03-29T13:15:19.360Z,98312.47
2023-03-29T13:20:50.946Z,98310.06
2023-03-29T13:26:06.448Z,98314.25
2023-03-29T13:31:23.551Z,98298.22
2023-03-29T13:36:46.281Z,98307.72
2023-03-29T13:41:53.109Z,98346.09
2023-03-29T13:47:19.348Z,98321.88
2023-03-29T13:52:21.374Z,98319.94
2023-03-29T13:57:30.293Z,98306.75
2023-03-29T14:02:49.428Z,98331.34
2023-03-29T14:07:54.437Z,98363.69
2023-03-29T14:12:57.744Z,98385.09
2023-03-29T14:18:01.579Z,98328.06
2023-03-29T14:23:20.049Z,98352.59
2023-03-29T14:28:24.956Z,98362.34
2023-03-29T14:33:29.377Z,98365.63
2023-03-29T14:38:32.340Z,98379.16
2023-03-29T14:43:34.397Z,98373.81
2023-03-29T14:48:37.525Z,98364.38
2023-03-29T14:53:41.746Z,98379.09
2023-03-29T14:58:47.402Z,98390.38
2023-03-29T15:04:02.069Z,98390.03
2023-03-29T15:09:06.591Z,98384.50
2023-03-29T15:14:16.823Z,98382.16
2023-03-29T15:19:22.207Z,98413.06
2023-03-29T15:24:33.337Z,98407.88
2023-03-29T15:29:41.909Z,98433.47
2023-03-29T15:34:44.048Z,98414.75
2023-03-29T15:39:46.118Z,98425.31
2023-03-29T15:44:48.210Z,98419.25
2023-03-29T15:49:50.769Z,98423.72
2023-03-29T15:54:52.810Z,98415.44
2023-03-29T15:59:54.950Z,98443.06
2023-03-29T16:04:56.998Z,98437.59
2023-03-29T16:09:59.081Z,98446.72
2023-03-29T16:15:01.189Z,98448.09
2023-03-29T16:20:05.431Z,98441.41
2023-03-29T16:25:13.596Z,98435.31
2023-03-29T16:30:16.165Z,98471.03
2023-03-29T16:35:30.603Z,98474.31
2023-03-29T16:40:33.404Z,98466.28
2023-03-29T16:45:35.471Z,98468.00
2023-03-29T16:50:37.771Z,98462.50
2023-03-29T16:55:40.437Z,98474.97
2023-03-29T17:00:45.693Z,98469.09
2023-03-29T17:05:54.562Z,98468.16
2023-03-29T17:10:56.682Z,98499.47
2023-03-29T17:15:58.851Z,98482.56
2023-03-29T17:21:01.729Z,98481.94
2023-03-29T17:26:04.855Z,98482.56
2023-03-29T17:31:08.064Z,98497.06
2023-03-29T17:36:10.753Z,98494.59
2023-03-29T17:41:12.818Z,98497.44
2023-03-29T17:46:16.631Z,98474.00
2023-03-29T17:51:19.934Z,98468.47
2023-03-29T17:56:22.907Z,98483.78
2023-03-29T18:01:25.172Z,98481.94
2023-03-29T18:06:27.369Z,98484.78
2023-03-29T18:11:29.692Z,98534.09
2023-03-29T18:16:31.824Z,98502.91
2023-03-29T18:21:33.930Z,98500.47
2023-03-29T18:26:36.041Z,98527.28
2023-03-29T18:31:38.167Z,98514.19
2023-03-29T18:36:40.409Z,98515.78
2023-03-29T18:41:42.440Z,98518.63
2023-03-29T18:46:44.807Z,98516.59
2023-03-29T18:51:47.741Z,98533.09
2023-03-29T18:56:50.042Z,98534.31
2023-03-29T19:01:52.359Z,98540.81
2023-03-29T19:06:56.131Z,98522.09
2023-03-29T19:11:58.249Z,98539.59
2023-03-29T19:17:00.470Z,98541.16
2023-03-29T19:22:02.638Z,98517.09
2023-03-29T19:27:06.562Z,98535.03
2023-03-29T19:32:08.742Z,98545.25
2023-03-29T19:37:11.106Z,98535.03
2023-03-29T19:42:13.247Z,98560.47
2023-03-29T19:47:15.787Z,98559.47
2023-03-29T19:52:17.943Z,98559.47
2023-03-29T19:57:20.093Z,98553.91
2023-03-29T20:02:22.289Z,98549.25
2023-03-29T20:07:24.364Z,98539.44
2023-03-29T20:12:26.575Z,98546.63
2023-03-29T20:17:28.979Z,98550.91
2023-03-29T20:22:32.826Z,98547.25
2023-03-29T20:27:35.533Z,98541.97
2023-03-29T20:32:37.836Z,98553.25
2023-03-29T20:37:40.108Z,98532.59
2023-03-29T20:42:42.301Z,98567.03
2023-03-29T20:47:56.030Z,98563.00
2023-03-29T20:53:02.285Z,98559.00
2023-03-29T20:58:05.536Z,98565.66
2023-03-29T21:03:08.654Z,98548.72
2023-03-29T21:08:11.020Z,98556.28
2023-03-29T21:13:13.172Z,98565.88
2023-03-29T21:18:15.914Z,98567.66
2023-03-29T21:23:18.001Z,98570.50
2023-03-29T21:28:20.143Z,98569.66
2023-03-29T21:33:22.349Z,98569.22
2023-03-29T21:38:24.500Z,98567.59
2023-03-29T21:43:26.604Z,98571.88
2023-03-29T21:48:29.115Z,98565.03
2023-03-29T21:53:31.433Z,98573.38
2023-03-29T21:58:33.568Z,98571.53
2023-03-29T22:03:37.519Z,98566.06
2023-03-29T22:08:40.004Z,98572.19
2023-03-29T22:13:42.945Z,98566.88
2023-03-29T22:18:49.750Z,98580.19
2023-03-29T22:23:54.266Z,98580.81
2023-03-29T22:28:57.591Z,98579.19
2023-03-29T22:34:00.785Z,98569.97
2023-03-29T22:39:02.938Z,98576.09
2023-03-29T22:44:05.858Z,98576.47
2023-03-29T22:49:07.994Z,98579.69
2023-03-29T22:54:10.094Z,98584.34
2023-03-29T22:59:12.247Z,98563.31
2023-03-29T23:04:14.724Z,98564.13
2023-03-29T23:09:16.949Z,98572.88
2023-03-29T23:14:19.105Z,98569.03
2023-03-29T23:19:21.237Z,98562.38
2023-03-29T23:24:23.580Z,98559.00
2023-03-29T23:29:26.452Z,98561.28
2023-03-29T23:34:28.809Z,98548.06
2023-03-29T23:39:31.081Z,98557.38
2023-03-29T23:44:33.224Z,98555.88
2023-03-29T23:49:36.309Z,98538.25
2023-03-29T23:54:38.334Z,98555.63
2023-03-29T23:59:40.468Z,98572.94
